Time;durP1;ratioP1;P1;durP2;ratioP2;P2;SDS_P1;SDS_P2;PMS_P1;PMS_P2;Temp;Humidity;BMP_temperature;BMP_pressure;BME280_temperature;BME280_humidity;BME280_pressure;Samples;Min_cycle;Max_cycle;Signal;HPM_P1;HPM_P2
2022/03/17 00:00:13;;;;;;;28.55;23.30;;;11.90;99.90;;;;;;5023793;28;20048;-57
2022/03/17 00:02:39;;;;;;;28.52;22.70;;;11.90;99.90;;;;;;5019091;28;20028;-57
2022/03/17 00:05:10;;;;;;;29.98;24.90;;;11.80;99.90;;;;;;5024009;28;20044;-57
2022/03/17 00:07:40;;;;;;;35.55;24.20;;;11.90;99.90;;;;;;5026674;28;20052;-57
2022/03/17 00:10:07;;;;;;;29.08;23.77;;;11.90;99.90;;;;;;5025126;28;20095;-56
2022/03/17 00:12:33;;;;;;;30.73;23.52;;;11.90;99.90;;;;;;5024661;28;20443;-56
2022/03/17 00:14:59;;;;;;;30.55;24.38;;;11.80;99.90;;;;;;5028221;28;20058;-57
2022/03/17 00:17:26;;;;;;;28.30;23.90;;;11.60;99.90;;;;;;5025410;28;20049;-57
2022/03/17 00:19:52;;;;;;;31.00;24.38;;;11.80;99.90;;;;;;5026015;28;20060;-57
2022/03/17 00:22:18;;;;;;;32.63;23.98;;;11.80;99.90;;;;;;5026226;28;20075;-57
2022/03/17 00:24:44;;;;;;;30.45;23.98;;;11.80;99.90;;;;;;5029791;28;20030;-57
2022/03/17 00:27:10;;;;;;;32.13;23.63;;;11.80;99.90;;;;;;5026449;28;20049;-57
2022/03/17 00:29:37;;;;;;;31.55;23.98;;;11.90;99.90;;;;;;5031686;28;20018;-55
2022/03/17 00:32:04;;;;;;;33.17;24.65;;;11.80;99.90;;;;;;5034573;28;20029;-58
2022/03/17 00:34:30;;;;;;;32.75;23.63;;;11.80;99.90;;;;;;5024001;28;20095;-57
2022/03/17 00:36:56;;;;;;;30.00;23.38;;;11.70;99.90;;;;;;5027847;28;20033;-56
2022/03/17 00:39:21;;;;;;;31.52;24.58;;;11.70;99.90;;;;;;5028905;28;20029;-57
2022/03/17 00:41:47;;;;;;;31.40;23.58;;;11.70;99.90;;;;;;5036586;28;20022;-57
2022/03/17 00:44:14;;;;;;;32.05;24.15;;;11.80;99.90;;;;;;5027992;28;20021;-55
2022/03/17 00:46:40;;;;;;;30.88;24.17;;;11.70;99.90;;;;;;5030194;28;20485;-57
2022/03/17 00:49:06;;;;;;;35.72;25.52;;;11.80;99.90;;;;;;5024192;28;20036;-57
2022/03/17 00:51:31;;;;;;;32.38;24.85;;;11.70;99.90;;;;;;5024409;28;20037;-56
2022/03/17 00:53:57;;;;;;;30.65;24.10;;;11.80;99.90;;;;;;5027466;28;20417;-57
2022/03/17 00:56:23;;;;;;;34.85;25.30;;;11.80;99.90;;;;;;5025630;28;20452;-57
2022/03/17 00:58:49;;;;;;;35.30;24.75;;;11.80;99.90;;;;;;5025779;28;20025;-57
2022/03/17 01:01:17;;;;;;;35.38;25.05;;;11.80;99.90;;;;;;5026771;28;20036;-57
2022/03/17 01:03:45;;;;;;;32.03;24.00;;;11.80;99.90;;;;;;5025457;28;20579;-56
2022/03/17 01:06:11;;;;;;;30.83;24.52;;;11.80;99.90;;;;;;5026940;28;20048;-57
2022/03/17 01:08:38;;;;;;;30.52;24.23;;;11.80;99.90;;;;;;5029433;28;20072;-57
2022/03/17 01:11:04;;;;;;;32.90;25.52;;;11.80;99.90;;;;;;5026803;28;20044;-57
2022/03/17 01:13:30;;;;;;;34.25;26.30;;;11.80;99.90;;;;;;5029242;28;20484;-57
2022/03/17 01:15:56;;;;;;;32.08;25.40;;;11.80;99.90;;;;;;5031222;28;20099;-57
2022/03/17 01:18:22;;;;;;;34.10;25.80;;;11.80;99.90;;;;;;5026556;28;20025;-56
2022/03/17 01:20:48;;;;;;;32.75;25.08;;;11.80;99.90;;;;;;5024125;28;20120;-57
2022/03/17 01:23:14;;;;;;;30.35;24.38;;;11.80;99.90;;;;;;5036804;28;20051;-58
2022/03/17 01:25:39;;;;;;;31.35;24.77;;;11.80;99.90;;;;;;5030457;28;20025;-57
2022/03/17 01:28:05;;;;;;;31.85;24.60;;;11.80;99.90;;;;;;5033397;28;20032;-57
2022/03/17 01:30:31;;;;;;;30.35;24.23;;;11.70;99.90;;;;;;5022194;28;20060;-56
2022/03/17 01:32:56;;;;;;;30.83;25.02;;;11.80;99.90;;;;;;5026211;28;20100;-57
2022/03/17 01:35:22;;;;;;;31.17;24.38;;;11.70;99.90;;;;;;5025202;28;20022;-55
2022/03/17 01:37:48;;;;;;;31.23;24.38;;;11.80;99.90;;;;;;5037023;28;20018;-57
2022/03/17 01:40:14;;;;;;;31.60;24.13;;;11.70;99.90;;;;;;5028538;28;20025;-56
2022/03/17 01:42:39;;;;;;;29.73;23.40;;;11.70;99.90;;;;;;5031134;28;20029;-57
2022/03/17 01:45:06;;;;;;;30.38;24.25;;;11.70;99.90;;;;;;5026983;28;20727;-57
2022/03/17 01:47:33;;;;;;;31.02;23.98;;;11.60;99.90;;;;;;5025814;28;20021;-57
2022/03/17 01:50:05;;;;;;;31.67;24.83;;;11.70;99.90;;;;;;5025407;28;20381;-57
2022/03/17 01:52:31;;;;;;;32.00;24.65;;;11.70;99.90;;;;;;5027111;28;20450;-57
2022/03/17 01:54:56;;;;;;;30.85;24.27;;;11.70;99.90;;;;;;5031886;28;20488;-56
2022/03/17 01:57:22;;;;;;;29.88;23.80;;;11.70;99.90;;;;;;5030175;28;20068;-57
2022/03/17 01:59:49;;;;;;;30.88;24.10;;;11.80;99.90;;;;;;5027372;28;20124;-57
2022/03/17 02:02:15;;;;;;;33.67;24.20;;;11.70;99.90;;;;;;5025880;28;20693;-57
2022/03/17 02:04:41;;;;;;;29.45;23.95;;;11.80;99.90;;;;;;5036964;28;20101;-57
2022/03/17 02:07:08;;;;;;;29.33;24.63;;;11.80;99.90;;;;;;5029488;28;20038;-57
2022/03/17 02:09:35;;;;;;;30.55;23.55;;;11.80;99.90;;;;;;5026565;28;20638;-58
2022/03/17 02:14:51;;;;;;;30.45;24.55;;;11.80;99.90;;;;;;5019698;28;20033;-58
2022/03/17 02:17:17;;;;;;;28.75;23.90;;;11.80;99.90;;;;;;5024891;28;20456;-57
2022/03/17 02:19:42;;;;;;;36.42;24.58;;;11.90;99.90;;;;;;5024934;28;20037;-58
2022/03/17 02:22:12;;;;;;;33.38;25.25;;;11.90;99.90;;;;;;5027080;28;20092;-57
2022/03/17 02:27:28;;;;;;;31.58;25.40;;;11.80;99.90;;;;;;5029704;28;20587;-56
2022/03/17 02:29:54;;;;;;;32.38;25.33;;;11.80;99.90;;;;;;5027308;28;20104;-58
2022/03/17 02:32:20;;;;;;;31.33;25.35;;;11.80;99.90;;;;;;5028396;28;20116;-57
2022/03/17 02:34:46;;;;;;;32.63;25.13;;;11.90;99.90;;;;;;5023936;28;20479;-57
2022/03/17 02:37:12;;;;;;;35.33;25.95;;;11.80;99.90;;;;;;5027479;28;20119;-58
2022/03/17 02:39:38;;;;;;;30.90;24.50;;;11.80;99.90;;;;;;5034533;28;20477;-58
2022/03/17 02:42:05;;;;;;;32.97;26.27;;;11.80;99.90;;;;;;5030086;28;20388;-57
2022/03/17 02:44:32;;;;;;;35.47;26.75;;;11.80;99.90;;;;;;5031583;28;20362;-57
2022/03/17 02:46:58;;;;;;;35.83;26.33;;;11.90;99.90;;;;;;5023756;28;20387;-57
2022/03/17 02:49:24;;;;;;;34.28;26.00;;;11.80;99.90;;;;;;5030657;28;20029;-57
2022/03/17 02:51:50;;;;;;;33.90;26.17;;;11.80;99.90;;;;;;5024495;28;20036;-57
2022/03/17 02:54:15;;;;;;;33.50;25.55;;;11.80;99.90;;;;;;5025552;28;20666;-56
2022/03/17 02:56:41;;;;;;;32.63;25.55;;;11.80;99.90;;;;;;5030501;28;20021;-57
2022/03/17 02:59:06;;;;;;;36.60;26.40;;;11.80;99.90;;;;;;5029828;28;20086;-56
2022/03/17 03:01:32;;;;;;;32.30;26.63;;;12.00;99.90;;;;;;5025375;28;20030;-57
2022/03/17 03:03:58;;;;;;;35.05;26.05;;;12.20;99.90;;;;;;5026636;28;20455;-57
2022/03/17 03:06:24;;;;;;;33.40;25.63;;;11.80;99.90;;;;;;5032159;28;20037;-56
2022/03/17 03:08:49;;;;;;;32.42;24.92;;;11.80;99.90;;;;;;5023940;28;20017;-57
2022/03/17 03:11:15;;;;;;;36.15;25.63;;;11.80;99.90;;;;;;5028342;28;20444;-57
2022/03/17 03:13:40;;;;;;;30.67;24.70;;;11.80;99.90;;;;;;5027920;28;20052;-57
2022/03/17 03:16:06;;;;;;;32.97;24.45;;;11.90;99.90;;;;;;5029371;28;20302;-57
2022/03/17 03:18:32;;;;;;;31.92;25.83;;;;;;;;;;5028455;28;20034;-57
2022/03/17 03:20:58;;;;;;;30.83;24.30;;;11.60;99.90;;;;;;5030472;28;20052;-57
2022/03/17 03:23:23;;;;;;;30.95;24.80;;;11.70;99.90;;;;;;5030021;28;20106;-57
2022/03/17 03:25:49;;;;;;;31.42;24.77;;;11.70;99.90;;;;;;5024749;28;20084;-57
2022/03/17 03:28:14;;;;;;;33.58;25.15;;;11.70;99.90;;;;;;5030101;28;20036;-57
2022/03/17 03:30:41;;;;;;;33.78;24.25;;;;;;;;;;5027024;28;20471;-56
2022/03/17 03:33:07;;;;;;;33.90;25.00;;;11.60;99.90;;;;;;5028290;28;20455;-58
2022/03/17 03:38:19;;;;;;;33.88;25.52;;;11.60;99.90;;;;;;5023237;28;20056;-57
2022/03/17 03:40:45;;;;;;;38.92;25.65;;;11.70;99.90;;;;;;5030522;28;20457;-56
2022/03/17 03:43:11;;;;;;;34.33;25.38;;;;;;;;;;5025348;28;20118;-55
2022/03/17 03:45:38;;;;;;;33.10;25.67;;;;;;;;;;5025911;28;20025;-57
2022/03/17 03:48:05;;;;;;;32.30;25.42;;;;;;;;;;5023114;28;20049;-57
2022/03/17 03:50:31;;;;;;;32.58;25.45;;;11.50;99.90;;;;;;5027489;28;20041;-57
2022/03/17 03:52:57;;;;;;;31.05;25.23;;;11.60;99.90;;;;;;5023247;28;20472;-56
2022/03/17 03:55:23;;;;;;;31.95;26.02;;;11.60;99.90;;;;;;5031023;28;20103;-56
2022/03/17 03:57:50;;;;;;;32.60;26.67;;;11.60;99.90;;;;;;5021865;28;20049;-57
2022/03/17 04:00:32;;;;;;;36.28;27.58;;;;;;;;;;5030247;28;20017;-56
2022/03/17 04:02:59;;;;;;;36.22;28.38;;;;;;;;;;5028502;28;20354;-57
2022/03/17 04:05:34;;;;;;;38.25;28.42;;;11.00;99.90;;;;;;5025451;28;20022;-57
2022/03/17 04:08:00;;;;;;;35.70;26.98;;;11.30;99.90;;;;;;5030927;28;20460;-57
2022/03/17 04:10:27;;;;;;;37.10;28.98;;;11.20;99.90;;;;;;5026449;28;20051;-57
2022/03/17 04:12:54;;;;;;;35.80;28.65;;;;;;;;;;5026134;28;20033;-57
2022/03/17 04:15:19;;;;;;;38.00;29.27;;;11.00;99.90;;;;;;5024758;28;20030;-57
2022/03/17 04:17:45;;;;;;;40.50;30.20;;;11.00;99.90;;;;;;5029952;28;20444;-58
2022/03/17 04:20:11;;;;;;;39.10;30.33;;;11.10;99.90;;;;;;5028542;28;20041;-57
2022/03/17 04:22:37;;;;;;;39.90;31.23;;;11.00;99.90;;;;;;5023175;28;20032;-57
2022/03/17 04:25:03;;;;;;;42.13;31.27;;;;;;;;;;5023060;28;20455;-58
2022/03/17 04:27:29;;;;;;;41.45;32.25;;;10.60;99.90;;;;;;5030247;28;20040;-58
2022/03/17 04:29:54;;;;;;;43.33;33.25;;;10.80;99.90;;;;;;5021494;28;20021;-60
2022/03/17 04:32:21;;;;;;;42.88;33.28;;;;;;;;;;5024762;28;20136;-60
2022/03/17 04:34:47;;;;;;;44.70;34.28;;;10.70;99.90;;;;;;5023905;28;20045;-59
2022/03/17 04:37:13;;;;;;;44.75;35.15;;;10.70;99.90;;;;;;5031633;28;20503;-60
2022/03/17 04:39:38;;;;;;;46.72;34.88;;;10.60;99.90;;;;;;5033760;28;20061;-62
2022/03/17 04:42:04;;;;;;;47.35;36.13;;;10.50;99.90;;;;;;5027411;28;20039;-62
2022/03/17 04:44:30;;;;;;;48.20;36.40;;;10.60;99.90;;;;;;5026768;28;20095;-62
2022/03/17 04:46:55;;;;;;;51.08;36.72;;;10.60;99.90;;;;;;5023541;28;20075;-62
2022/03/17 04:49:21;;;;;;;48.25;37.60;;;10.50;99.90;;;;;;5022363;28;20030;-62
2022/03/17 04:51:46;;;;;;;55.22;37.88;;;10.40;99.90;;;;;;5023126;28;20018;-63
2022/03/17 04:54:12;;;;;;;53.47;38.22;;;10.30;99.90;;;;;;5026192;28;20047;-63
2022/03/17 04:56:38;;;;;;;49.90;38.60;;;10.60;99.90;;;;;;5025951;28;20025;-63
2022/03/17 04:59:03;;;;;;;52.97;40.63;;;10.40;99.90;;;;;;5032062;28;20025;-62
2022/03/17 05:01:29;;;;;;;52.40;39.70;;;10.50;99.90;;;;;;5024876;28;20045;-62
2022/03/17 05:03:54;;;;;;;57.78;39.53;;;10.20;99.90;;;;;;5022259;28;20021;-62
2022/03/17 05:06:20;;;;;;;52.97;40.25;;;10.70;99.90;;;;;;5024796;28;20032;-62
2022/03/17 05:08:46;;;;;;;54.85;40.42;;;10.70;99.90;;;;;;5021870;28;20117;-62
2022/03/17 05:11:13;;;;;;;58.22;40.97;;;10.60;99.90;;;;;;5025891;28;20099;-62
2022/03/17 05:13:43;;;;;;;58.17;40.95;;;10.90;99.90;;;;;;5024927;28;20025;-62
2022/03/17 05:16:10;;;;;;;59.88;42.83;;;;;;;;;;5025826;28;20025;-62
2022/03/17 05:18:36;;;;;;;56.22;40.88;;;10.70;99.90;;;;;;5021857;28;20021;-61
2022/03/17 05:21:02;;;;;;;61.22;41.55;;;10.90;99.90;;;;;;5032767;28;20021;-61
2022/03/17 05:23:31;;;;;;;60.78;42.05;;;;;;;;;;5033322;28;20112;-61
2022/03/17 05:25:58;;;;;;;63.28;42.33;;;;;;;;;;5025360;28;20665;-60
2022/03/17 05:28:24;;;;;;;61.70;43.05;;;;;;;;;;5028373;28;20021;-60
2022/03/17 05:30:52;;;;;;;61.97;41.33;;;;;;;;;;5021066;28;20033;-60
2022/03/17 05:33:18;;;;;;;61.80;42.08;;;;;;;;;;5025198;28;20030;-60
2022/03/17 05:35:44;;;;;;;60.40;40.67;;;11.00;99.90;;;;;;5021630;28;20029;-60
2022/03/17 05:38:10;;;;;;;57.17;39.13;;;11.20;99.90;;;;;;5027430;28;20113;-61
2022/03/17 05:40:36;;;;;;;49.63;34.33;;;11.20;99.90;;;;;;5023568;28;20030;-60
2022/03/17 05:43:06;;;;;;;46.40;31.38;;;11.10;99.90;;;;;;5023953;28;20034;-60
2022/03/17 05:45:33;;;;;;;42.90;28.58;;;10.90;99.90;;;;;;5023291;28;20022;-61
2022/03/17 05:48:00;;;;;;;34.53;25.30;;;10.80;99.90;;;;;;5023282;28;20057;-61
2022/03/17 05:50:32;;;;;;;36.17;26.77;;;10.70;99.90;;;;;;5024730;28;20040;-61
2022/03/17 05:52:57;;;;;;;40.47;27.65;;;10.80;99.90;;;;;;5023239;28;20048;-61
2022/03/17 05:55:27;;;;;;;37.25;26.50;;;;;;;;;;5023549;28;20493;-60
2022/03/17 05:57:57;;;;;;;38.92;25.58;;;;;;;;;;5023687;28;20018;-60
2022/03/17 06:00:25;;;;;;;38.28;25.90;;;10.20;99.90;;;;;;5033288;28;20539;-61
2022/03/17 06:02:51;;;;;;;40.40;27.38;;;10.40;99.90;;;;;;5030986;28;20021;-60
2022/03/17 06:05:17;;;;;;;40.72;29.17;;;10.30;99.90;;;;;;5030632;28;20339;-60
2022/03/17 06:07:45;;;;;;;40.90;28.70;;;;;;;;;;5031785;28;20032;-60
2022/03/17 06:10:14;;;;;;;41.65;28.50;;;;;;;;;;5031686;28;20022;-59
2022/03/17 06:12:40;;;;;;;39.80;27.65;;;9.90;99.90;;;;;;5026273;28;20117;-60
2022/03/17 06:15:08;;;;;;;42.67;29.42;;;;;;;;;;5028948;28;20037;-59
2022/03/17 06:17:36;;;;;;;41.70;28.70;;;9.60;99.90;;;;;;5031492;28;20103;-60
2022/03/17 06:20:04;;;;;;;46.58;28.52;;;;;;;;;;5027600;28;20112;-59
2022/03/17 06:22:31;;;;;;;39.13;28.67;;;;;;;;;;5026628;28;20052;-59
2022/03/17 06:24:58;;;;;;;42.75;29.02;;;;;;;;;;5029511;28;20049;-59
2022/03/17 06:27:25;;;;;;;42.90;28.23;;;;;;;;;;5027989;28;20550;-59
2022/03/17 06:29:51;;;;;;;40.63;28.65;;;;;;;;;;5024984;28;20022;-59
2022/03/17 06:32:18;;;;;;;41.83;28.33;;;;;;;;;;5030701;28;20142;-58
2022/03/17 06:34:43;;;;;;;41.13;27.67;;;9.60;99.90;;;;;;5023240;28;20480;-59
2022/03/17 06:37:09;;;;;;;39.20;26.05;;;9.90;99.90;;;;;;5023790;28;20088;-59
2022/03/17 06:39:35;;;;;;;42.17;26.80;;;9.80;99.90;;;;;;5026465;28;20026;-59
2022/03/17 06:42:00;;;;;;;40.53;26.25;;;9.60;99.90;;;;;;5026546;28;20033;-59
2022/03/17 06:44:26;;;;;;;36.90;25.67;;;9.40;99.90;;;;;;5029782;28;20033;-59
2022/03/17 06:46:51;;;;;;;40.33;26.05;;;9.40;99.90;;;;;;5026902;28;20025;-59
2022/03/17 06:49:17;;;;;;;39.65;26.25;;;9.50;99.90;;;;;;5025838;28;20065;-58
2022/03/17 06:51:42;;;;;;;34.92;24.80;;;9.30;99.90;;;;;;5027677;28;20037;-59
2022/03/17 06:54:08;;;;;;;39.28;26.55;;;9.30;99.90;;;;;;5025885;28;20030;-59
2022/03/17 06:56:34;;;;;;;40.50;27.52;;;9.30;99.90;;;;;;5026152;28;20115;-60
2022/03/17 06:58:59;;;;;;;42.03;28.08;;;9.30;99.90;;;;;;5030858;28;20021;-60
2022/03/17 07:01:25;;;;;;;39.20;24.50;;;9.30;99.90;;;;;;5027517;28;20029;-60
2022/03/17 07:03:50;;;;;;;38.55;23.70;;;9.10;99.90;;;;;;5029379;28;20116;-60
2022/03/17 07:06:16;;;;;;;33.83;20.90;;;9.00;99.90;;;;;;5024606;28;20021;-60
2022/03/17 07:08:41;;;;;;;29.15;19.25;;;9.00;99.90;;;;;;5027735;28;20135;-59
2022/03/17 07:11:07;;;;;;;35.00;17.83;;;8.90;99.90;;;;;;5028975;28;20406;-60
2022/03/17 07:13:33;;;;;;;22.95;15.02;;;8.90;99.90;;;;;;5029744;28;20018;-60
2022/03/17 07:16:00;;;;;;;23.08;13.43;;;8.90;99.90;;;;;;5023290;28;20495;-60
2022/03/17 07:18:25;;;;;;;23.30;13.20;;;8.80;99.90;;;;;;5025252;28;20117;-60
2022/03/17 07:20:51;;;;;;;25.52;12.70;;;8.90;99.90;;;;;;5028792;28;20092;-60
2022/03/17 07:23:16;;;;;;;19.67;10.18;;;8.90;99.90;;;;;;5035256;28;20037;-58
2022/03/17 07:25:42;;;;;;;20.02;9.88;;;8.70;99.90;;;;;;5029676;28;20100;-60
2022/03/17 07:28:08;;;;;;;21.48;9.60;;;9.20;99.90;;;;;;5030018;28;20037;-60
2022/03/17 07:30:34;;;;;;;21.30;8.82;;;;;;;;;;5025251;28;20040;-60
2022/03/17 07:33:01;;;;;;;17.05;8.60;;;;;;;;;;5027859;28;20512;-60
2022/03/17 07:35:28;;;;;;;23.90;8.95;;;8.70;99.90;;;;;;5019969;28;20265;-60
2022/03/17 07:37:58;;;;;;;19.98;7.28;;;;;;;;;;5024941;28;20029;-60
2022/03/17 07:40:24;;;;;;;17.67;6.97;;;8.90;99.90;;;;;;5022533;28;20033;-59
2022/03/17 07:42:49;;;;;;;16.60;6.53;;;8.90;99.90;;;;;;5028237;28;20028;-59
2022/03/17 07:45:15;;;;;;;17.50;6.93;;;8.80;99.90;;;;;;5025251;28;20018;-58
2022/03/17 07:47:48;;;;;;;16.50;6.22;;;8.80;99.90;;;;;;5021483;28;20026;-59
2022/03/17 07:50:14;;;;;;;;;;;8.60;99.90;;;;;;5023255;28;20448;-59
2022/03/17 07:52:40;;;;;;;13.02;5.70;;;8.80;99.90;;;;;;5025019;28;20356;-59
2022/03/17 07:55:08;;;;;;;14.13;5.45;;;;;;;;;;5024338;28;20041;-59
2022/03/17 07:57:35;;;;;;;14.82;5.50;;;8.70;99.90;;;;;;5021234;28;20040;-59
2022/03/17 08:00:03;;;;;;;13.43;5.35;;;8.70;99.90;;;;;;5022123;28;20620;-59
2022/03/17 08:02:28;;;;;;;17.48;5.68;;;8.60;99.90;;;;;;5023146;28;20108;-59
2022/03/17 08:04:55;;;;;;;10.23;4.85;;;8.90;99.90;;;;;;5023244;28;20104;-58
2022/03/17 08:07:21;;;;;;;12.75;4.45;;;9.00;99.90;;;;;;5030807;28;20087;-58
2022/03/17 08:09:47;;;;;;;14.30;4.35;;;8.90;99.90;;;;;;5028901;28;20483;-57
2022/03/17 08:12:12;;;;;;;13.30;4.80;;;8.80;99.90;;;;;;5024754;28;20022;-58
2022/03/17 08:14:38;;;;;;;10.68;3.90;;;9.30;99.90;;;;;;5025800;28;20065;-59
2022/03/17 08:17:04;;;;;;;9.85;4.40;;;8.90;99.90;;;;;;5025949;28;20033;-58
2022/03/17 08:19:31;;;;;;;9.73;4.40;;;9.00;99.90;;;;;;5024132;28;20371;-58
2022/03/17 08:21:57;;;;;;;12.20;3.55;;;9.00;99.90;;;;;;5023752;28;20053;-58
2022/03/17 08:24:22;;;;;;;11.52;3.63;;;8.90;99.90;;;;;;5023338;28;20060;-59
2022/03/17 08:26:48;;;;;;;8.93;3.20;;;8.80;99.90;;;;;;5021721;28;20024;-59
2022/03/17 08:29:14;;;;;;;8.48;3.38;;;8.80;99.90;;;;;;5032242;28;20030;-59
2022/03/17 08:31:40;;;;;;;10.23;3.78;;;9.00;99.90;;;;;;5025141;28;20025;-58
2022/03/17 08:34:06;;;;;;;9.93;3.30;;;9.00;99.90;;;;;;5022488;28;20381;-58
2022/03/17 08:36:31;;;;;;;11.15;3.67;;;9.20;99.90;;;;;;5005002;28;20020;-58
2022/03/17 08:38:57;;;;;;;11.90;3.50;;;9.70;99.90;;;;;;5023584;28;20029;-58
2022/03/17 08:41:23;;;;;;;9.80;3.53;;;9.50;99.90;;;;;;5024566;28;20080;-59
2022/03/17 08:43:49;;;;;;;5.55;3.13;;;9.40;99.90;;;;;;5024772;28;20032;-59
2022/03/17 08:51:44;;;;;;;8.15;2.53;;;;;;;;;;5023060;28;20052;-58
2022/03/17 08:54:11;;;;;;;7.80;2.97;;;9.50;99.90;;;;;;5025096;28;20037;-59
2022/03/17 08:56:37;;;;;;;10.57;3.08;;;9.50;99.90;;;;;;5021702;28;20033;-58
2022/03/17 08:59:04;;;;;;;9.32;3.10;;;9.40;99.90;;;;;;5026025;28;20388;-58
2022/03/17 09:01:30;;;;;;;8.10;2.80;;;9.20;99.90;;;;;;5025603;28;20029;-58
2022/03/17 09:03:55;;;;;;;10.98;2.70;;;9.10;99.90;;;;;;5022532;28;20032;-59
2022/03/17 09:06:22;;;;;;;6.32;2.80;;;9.10;99.90;;;;;;5028135;28;20068;-58
2022/03/17 09:08:48;;;;;;;7.88;2.67;;;9.10;99.90;;;;;;5026899;28;20566;-59
2022/03/17 09:11:14;;;;;;;8.13;3.15;;;9.30;99.90;;;;;;5026120;28;20029;-58
2022/03/17 09:13:40;;;;;;;9.60;3.00;;;9.30;99.90;;;;;;5029388;28;20022;-58
2022/03/17 09:16:06;;;;;;;9.00;2.70;;;9.30;99.90;;;;;;5033426;28;20025;-58
2022/03/17 09:18:32;;;;;;;8.90;2.40;;;9.10;99.90;;;;;;5021389;28;20071;-59
2022/03/17 09:21:01;;;;;;;12.98;3.75;;;9.00;99.90;;;;;;5024259;28;20465;-58
2022/03/17 09:23:30;;;;;;;8.68;3.35;;;9.00;99.90;;;;;;5025036;28;20025;-59
2022/03/17 09:25:56;;;;;;;7.63;2.50;;;9.20;99.90;;;;;;5025885;28;20373;-59
2022/03/17 09:28:22;;;;;;;10.00;3.25;;;9.20;99.90;;;;;;5026946;28;20072;-59
2022/03/17 09:30:50;;;;;;;8.98;2.35;;;9.10;99.90;;;;;;5024830;28;20532;-58
2022/03/17 09:33:17;;;;;;;8.10;2.40;;;9.10;99.90;;;;;;5024167;28;20037;-58
2022/03/17 09:35:43;;;;;;;7.80;2.03;;;9.10;99.90;;;;;;5030657;28;20693;-58
2022/03/17 09:38:09;;;;;;;8.25;2.17;;;9.10;99.90;;;;;;5031461;28;20029;-58
2022/03/17 09:40:36;;;;;;;8.65;1.80;;;9.20;99.90;;;;;;5032618;28;20645;-59
2022/03/17 09:45:51;;;;;;;10.75;2.15;;;9.20;99.90;;;;;;5026250;28;20040;-59
2022/03/17 09:48:18;;;;;;;9.18;2.20;;;;;;;;;;5026451;28;20025;-59
2022/03/17 09:50:46;;;;;;;10.13;2.25;;;9.20;99.90;;;;;;5032950;28;20431;-59
2022/03/17 09:53:11;;;;;;;13.90;2.17;;;9.50;99.90;;;;;;5031624;28;20068;-59
2022/03/17 09:55:43;;;;;;;7.90;2.30;;;9.50;99.90;;;;;;5029239;28;20385;-59
2022/03/17 09:58:10;;;;;;;7.47;2.00;;;9.40;99.90;;;;;;5024860;28;20034;-59
2022/03/17 10:00:48;;;;;;;9.95;2.00;;;9.40;99.90;;;;;;5026209;28;20028;-59
2022/03/17 10:03:22;;;;;;;9.07;2.03;;;9.40;99.90;;;;;;5027942;28;20241;-59
2022/03/17 10:05:49;;;;;;;8.60;2.40;;;9.60;99.90;;;;;;5024838;28;20396;-58
2022/03/17 10:08:16;;;;;;;11.77;2.33;;;9.50;99.90;;;;;;5029356;28;20600;-59
2022/03/17 10:10:43;;;;;;;11.52;2.30;;;9.60;99.90;;;;;;5025749;28;20472;-59
2022/03/17 10:13:16;;;;;;;11.63;2.40;;;9.60;99.90;;;;;;5029143;28;20033;-59
2022/03/17 10:15:44;;;;;;;9.65;2.83;;;9.50;99.90;;;;;;5027026;28;20029;-59
2022/03/17 10:18:37;;;;;;;9.85;2.35;;;9.70;99.90;;;;;;5036394;28;20053;-59
2022/03/17 10:21:08;;;;;;;11.18;2.10;;;9.70;99.90;;;;;;5022716;28;20084;-59
2022/03/17 10:23:42;;;;;;;9.63;2.10;;;9.70;99.90;;;;;;5024397;28;20025;-58
2022/03/17 10:26:08;;;;;;;12.13;2.38;;;9.60;99.90;;;;;;5024966;28;20116;-58
2022/03/17 10:28:33;;;;;;;7.80;2.08;;;9.60;99.90;;;;;;5026670;28;20129;-59
2022/03/17 10:31:03;;;;;;;11.45;2.33;;;9.50;99.90;;;;;;5026743;28;20151;-60
2022/03/17 10:33:29;;;;;;;12.80;3.20;;;9.40;99.90;;;;;;5026997;28;20490;-59
2022/03/17 10:36:11;;;;;;;12.90;3.05;;;9.50;99.90;;;;;;5025361;28;20037;-57
2022/03/17 10:38:42;;;;;;;13.80;3.20;;;9.50;99.90;;;;;;5030104;28;20442;-58
2022/03/17 10:41:11;;;;;;;8.57;2.95;;;9.60;99.90;;;;;;5029716;28;20191;-59
2022/03/17 10:43:39;;;;;;;12.73;3.80;;;9.60;99.90;;;;;;5032342;28;20021;-58
2022/03/17 10:46:16;;;;;;;11.90;3.33;;;9.50;99.90;;;;;;5028864;28;20033;-58
2022/03/17 10:48:55;;;;;;;12.90;4.13;;;9.60;99.90;;;;;;5026161;28;20112;-58
2022/03/17 10:51:38;;;;;;;8.73;3.35;;;9.50;99.90;;;;;;5030112;28;20388;-58
2022/03/17 10:54:06;;;;;;;13.50;4.35;;;9.40;99.90;;;;;;5024587;28;20040;-58
2022/03/17 10:56:33;;;;;;;13.57;3.78;;;9.40;99.90;;;;;;5023260;28;20049;-58
2022/03/17 10:59:00;;;;;;;9.38;3.63;;;9.50;99.90;;;;;;5020793;28;20398;-59
2022/03/17 11:01:45;;;;;;;11.60;3.42;;;9.50;99.90;;;;;;5025188;28;20393;-59
2022/03/17 11:04:11;;;;;;;12.95;3.90;;;9.50;99.90;;;;;;5023457;28;20037;-58
2022/03/17 11:06:38;;;;;;;15.18;3.83;;;9.50;99.90;;;;;;5031568;28;20383;-58
2022/03/17 11:09:05;;;;;;;11.23;3.55;;;9.50;99.90;;;;;;5024430;28;20021;-58
2022/03/17 11:11:31;;;;;;;12.30;3.47;;;9.60;99.90;;;;;;5029946;28;20367;-59
2022/03/17 11:13:58;;;;;;;12.23;3.85;;;9.70;99.90;;;;;;5028926;28;20029;-57
2022/03/17 11:16:46;;;;;;;13.27;4.10;;;9.60;99.90;;;;;;5028172;28;20034;-58
2022/03/17 11:19:16;;;;;;;8.38;3.17;;;9.70;99.90;;;;;;5020797;28;20403;-58
2022/03/17 11:21:46;;;;;;;14.57;3.30;;;9.70;99.90;;;;;;5020989;28;20037;-58
2022/03/17 11:24:20;;;;;;;10.85;3.22;;;9.90;99.90;;;;;;5029969;28;20033;-57
2022/03/17 11:26:46;;;;;;;16.98;2.85;;;10.00;99.90;;;;;;5023935;28;20033;-58
2022/03/17 11:29:17;;;;;;;9.40;2.55;;;9.90;99.90;;;;;;5022762;28;20041;-57
2022/03/17 11:31:56;;;;;;;10.25;2.25;;;10.10;99.90;;;;;;5022409;28;20026;-58
2022/03/17 11:34:46;;;;;;;12.85;2.78;;;9.90;99.90;;;;;;5026251;28;20041;-58
2022/03/17 11:37:26;;;;;;;11.02;2.30;;;9.90;99.90;;;;;;5023407;28;20034;-58
2022/03/17 11:40:10;;;;;;;12.65;2.38;;;9.70;99.90;;;;;;5023674;28;20037;-57
2022/03/17 11:42:52;;;;;;;7.78;2.60;;;9.80;99.90;;;;;;5029324;28;20618;-57
2022/03/17 11:45:18;;;;;;;5.47;1.50;;;10.00;99.90;;;;;;5029070;28;20036;-58
2022/03/17 11:48:08;;;;;;;7.95;1.50;;;10.00;99.90;;;;;;5024089;28;20426;-57
2022/03/17 11:50:40;;;;;;;11.25;1.63;;;9.90;99.90;;;;;;5023092;28;20029;-58
2022/03/17 11:53:07;;;;;;;9.88;1.70;;;10.00;99.90;;;;;;5029547;28;20103;-58
2022/03/17 11:55:47;;;;;;;5.90;1.35;;;10.10;99.90;;;;;;5023935;28;20160;-59
2022/03/17 11:58:48;;;;;;;13.07;2.03;;;10.10;99.90;;;;;;5023991;28;20029;-58
2022/03/17 12:01:27;;;;;;;11.75;1.77;;;10.30;99.90;;;;;;5020937;28;20045;-59
2022/03/17 12:04:06;;;;;;;11.27;2.55;;;10.30;99.90;;;;;;5026097;28;20029;-59
2022/03/17 12:06:35;;;;;;;10.90;2.17;;;10.30;99.90;;;;;;5025857;28;20056;-58
2022/03/17 12:09:11;;;;;;;10.13;1.80;;;10.20;99.90;;;;;;5026842;28;20018;-58
2022/03/17 12:11:47;;;;;;;7.93;1.60;;;10.10;99.90;;;;;;5022251;28;20404;-59
2022/03/17 12:14:22;;;;;;;11.88;1.73;;;10.30;99.90;;;;;;5027519;28;20123;-57
2022/03/17 12:16:49;;;;;;;9.73;1.95;;;10.20;99.90;;;;;;5024905;28;20132;-58
2022/03/17 12:19:25;;;;;;;8.52;1.90;;;10.10;99.90;;;;;;5027749;28;20092;-58
2022/03/17 12:22:04;;;;;;;53.22;32.25;;;10.20;99.90;;;;;;5023637;28;20465;-58
2022/03/17 12:24:41;;;;;;;9.00;2.33;;;10.30;99.90;;;;;;5024306;28;20026;-58
2022/03/17 12:27:17;;;;;;;8.40;1.70;;;10.20;99.90;;;;;;5023524;28;20029;-58
2022/03/17 12:29:44;;;;;;;8.75;1.85;;;10.10;99.90;;;;;;5025182;28;20040;-58
2022/03/17 12:32:12;;;;;;;12.48;2.50;;;10.10;99.90;;;;;;5024816;28;20095;-58
2022/03/17 12:34:39;;;;;;;17.33;2.97;;;10.20;99.90;;;;;;5022709;28;20477;-57
2022/03/17 12:37:06;;;;;;;13.73;2.72;;;10.40;99.90;;;;;;5031555;28;20090;-58
2022/03/17 12:39:33;;;;;;;15.48;3.30;;;10.60;99.90;;;;;;5024462;28;20029;-58
2022/03/17 12:42:00;;;;;;;11.55;2.58;;;10.50;99.90;;;;;;5024699;28;20033;-57
2022/03/17 12:44:27;;;;;;;13.75;2.90;;;10.40;99.90;;;;;;5029116;28;20542;-57
2022/03/17 12:46:53;;;;;;;12.32;2.63;;;10.40;99.90;;;;;;5026231;28;20693;-56
2022/03/17 12:49:20;;;;;;;14.73;3.08;;;10.50;99.90;;;;;;5027181;28;20691;-58
2022/03/17 12:51:48;;;;;;;8.05;2.30;;;10.40;99.90;;;;;;5024870;28;20237;-58
2022/03/17 12:54:14;;;;;;;13.45;2.47;;;10.50;99.90;;;;;;5027789;28;20033;-58
2022/03/17 12:56:51;;;;;;;12.15;2.63;;;10.40;99.90;;;;;;5023310;28;20045;-56
2022/03/17 12:59:18;;;;;;;10.05;2.95;;;10.50;99.90;;;;;;5021098;28;20025;-58
2022/03/17 13:01:47;;;;;;;9.13;2.55;;;10.30;99.90;;;;;;5026282;28;20029;-58
2022/03/17 13:04:14;;;;;;;14.63;2.70;;;10.50;99.90;;;;;;5024126;28;20029;-58
2022/03/17 13:06:54;;;;;;;12.77;2.33;;;10.40;99.90;;;;;;5024186;28;20440;-58